Detalii statie TARCEA AGRO TARCEA [0000197E]

Toti senzorii

Date Temperatura solului [C]Precipitatii [mm]Voltaj baterie [mV]Leaf Wetness [Min]HC Air temperature [C]HC Relative humidity [%]Punctul de roua [C]
medieminmaxsumaultimatimpmedieminmaxmediemediemin
2019-08-15 20:00:00 0 6854 19.39 18.78 19.83 72.68 14.1 13.5
2019-08-15 21:00:00 0 6854 18.24 17.67 18.63 80.69 14.7 14.1
2019-08-15 22:00:00 0 6844 16.99 16.35 17.75 86.59 14.6 14.1
2019-08-15 23:00:00 0 6826 15 14.05 16.4 94.09 13.9 13.4
2019-08-16 00:00:00 0 6826 13.74 13.09 14.08 99.84 13.6 13
2019-08-16 01:00:00 0 6806 13.01 12.03 13.7 100 12.9 12
2019-08-16 02:00:00 0 6806 11.95 11.17 12.65 100 11.9 11.1
2019-08-16 03:00:00 0 6776 11.09 10.36 12.16 100 11 10.3
2019-08-16 04:00:00 0 6786 10.46 10.17 10.8 100 10.4 10.1
2019-08-16 05:00:00 0 6776 9.93 9.35 10.24 100 9.8 9.3
2019-08-16 06:00:00 0 6786 9.55 9.46 9.85 100 9.5 9.4
2019-08-16 07:00:00 0 6854 9.98 9.52 10.77 100 9.9 9.5
2019-08-16 08:00:00 0 6982 12.52 11.07 13.48 100 12.4 11
2019-08-16 09:00:00 0 7226 14.99 13.64 16.13 100 14.9 13.6
2019-08-16 10:00:00 0 7284 19.27 16.61 21.54 80.32 15.4 13.4
2019-08-16 11:00:00 0 7186 21.73 20.63 23.19 55.45 12.2 11.7
2019-08-16 12:00:00 0 7148 22.76 22.16 23.67 46.3 10.4 9.6
2019-08-16 13:00:00 0 7148 24.01 23.51 24.47 38.63 8.8 8.2
2019-08-16 14:00:00 0 7030 24.59 23.68 25.46 36.44 8.4 7.6
2019-08-16 15:00:00 0 7284 24.49 23.81 25.68 37.41 8.7 8.4
2019-08-16 16:00:00 0 7060 24.8 24.12 25.36 33.94 7.5 6.9
2019-08-16 17:00:00 0 7000 25.6 24.83 26.48 32.54 7.6 7
2019-08-16 18:00:00 0 6962 24.37 23.79 26.15 36.72 8.3 7.2
2019-08-16 19:00:00 0 6922 23.42 22.62 24.17 41.92 9.5 8.8
2019-08-16 20:00:00 0 6864 21.15 19.7 22.23 50.71 10.3 9.9
2019-08-16 21:00:00 0 6854 18.31 17.25 19.26 70.11 12.5 11.3
2019-08-16 22:00:00 0 6834 16.5 15.77 17.6 80.6 13 12.5
2019-08-16 23:00:00 0 6834 14.93 14.57 15.66 87.7 12.7 11.6
2019-08-17 00:00:00 0 6826 13.94 13.6 14.37 93.19 12.7 12.2
2019-08-17 01:00:00 0 6806 13.46 13.04 13.79 95.46 12.6 12.3
2019-08-17 02:00:00 0 6816 13.12 12.87 13.37 96.15 12.4 12
2019-08-17 03:00:00 0 6816 13.08 12.75 13.33 96.46 12.4 11.9
2019-08-17 04:00:00 0 6816 12.48 12.2 12.74 96.98 11.8 11.5
2019-08-17 05:00:00 0 6806 12.65 12.36 12.86 96.48 11.9 11.4
2019-08-17 06:00:00 0 6796 13.28 12.96 13.45 95.51 12.4 12.3
2019-08-17 07:00:00 0 6844 13.68 13.33 14.27 95.34 12.8 12.7
2019-08-17 08:00:00 0 6922 15.71 14.39 17.18 84.99 13 12.4
2019-08-17 09:00:00 0 7050 18.81 17.58 19.93 69.93 13 12.5
2019-08-17 10:00:00 0 7284 19.91 19.38 20.63 62.74 12.3 11.7
2019-08-17 11:00:00 0 7206 21.8 20.23 23.39 52.7 11.4 10.7
2019-08-17 12:00:00 0 7138 25.03 24.44 26.14 40.75 10.5 10
2019-08-17 13:00:00 0 7196 26.15 25.3 27.23 37.77 10.4 10.1
2019-08-17 14:00:00 0 7186 26.57 25.39 27.68 36.48 10.1 9.6
2019-08-17 15:00:00 0 7080 27.53 26.81 28.61 33.69 9.8 9.6
2019-08-17 16:00:00 0 6992 27.35 26.27 28.52 33.58 9.6 9.1
2019-08-17 17:00:00 0 6992 26.7 26.12 27.31 36.26 10.3 9.9
2019-08-17 18:00:00 0 6932 26.55 26.18 27.29 38.29 10.9 10.6
2019-08-17 19:00:00 0 6894 25.31 24.64 26.37 42.89 11.5 11